Time;durP1;ratioP1;P1;durP2;ratioP2;P2;SDS_P1;SDS_P2;PMS_P1;PMS_P2;Temp;Humidity;BMP_temperature;BMP_pressure;BME280_temperature;BME280_humidity;BME280_pressure;Samples;Min_cycle;Max_cycle;Signal;HPM_P1;HPM_P2
2023/04/08 00:00:30;;;;;;;47.13;23.88;;;;;;;12.29;58.58;94226.44;5034869;28;20128;-85
2023/04/08 00:08:32;;;;;;;47.47;24.80;;;;;;;12.44;59.83;94227.31;5056576;28;20070;-86
2023/04/08 00:10:58;;;;;;;46.65;23.42;;;;;;;12.18;60.13;94224.22;5017360;28;20041;-86
2023/04/08 00:13:23;;;;;;;44.55;22.95;;;;;;;12.58;58.61;94235.31;5034910;28;20030;-85
2023/04/08 00:16:07;;;;;;;53.47;25.55;;;;;;;12.72;59.55;94230.13;5045288;28;20040;-86
2023/04/08 00:18:32;;;;;;;45.67;23.10;;;;;;;12.67;61.69;94230.97;5049823;28;20059;-85
2023/04/08 00:20:58;;;;;;;45.28;23.40;;;;;;;12.42;61.12;94229.47;5030382;28;20037;-86
2023/04/08 00:23:23;;;;;;;44.17;23.08;;;;;;;12.20;61.85;94225.53;5020837;28;20033;-86
2023/04/08 00:26:07;;;;;;;45.05;23.20;;;;;;;12.64;60.35;94233.41;5022056;28;20462;-85
2023/04/08 00:28:33;;;;;;;49.70;24.90;;;;;;;12.05;62.64;94223.03;5056487;28;20029;-86
2023/04/08 00:30:58;;;;;;;49.00;23.55;;;;;;;12.25;63.80;94230.72;5018881;28;20040;-85
2023/04/08 00:33:24;;;;;;;45.92;23.08;;;;;;;12.28;65.32;94224.13;5035199;28;20033;-86
2023/04/08 00:35:50;;;;;;;46.25;22.52;;;;;;;12.12;63.49;94223.50;5038609;28;20025;-85
2023/04/08 00:38:15;;;;;;;46.33;22.48;;;;;;;11.85;63.72;94216.94;5056283;28;20120;-86
2023/04/08 00:40:41;;;;;;;43.88;22.83;;;;;;;11.95;63.40;94222.09;5016677;28;20041;-86
2023/04/08 00:43:06;;;;;;;47.30;23.00;;;;;;;11.89;62.95;94210.06;5031097;28;20022;-86
2023/04/08 00:45:32;;;;;;;45.63;22.02;;;;;;;12.21;61.70;94211.34;5033816;28;20033;-86
2023/04/08 00:47:58;;;;;;;42.92;21.67;;;;;;;12.20;61.86;94212.41;5031813;28;20034;-85
2023/04/08 00:50:23;;;;;;;46.70;21.27;;;;;;;11.85;62.33;94207.22;4998786;28;20037;-85
2023/04/08 00:52:49;;;;;;;45.85;23.45;;;;;;;11.58;63.63;94211.16;5018526;28;20034;-86
2023/04/08 00:55:14;;;;;;;44.88;21.35;;;;;;;12.20;62.78;94206.34;5031799;28;20411;-85
2023/04/08 00:57:40;;;;;;;48.28;23.13;;;;;;;11.79;63.44;94208.31;5017303;28;20037;-85
2023/04/08 01:00:25;;;;;;;51.90;23.00;;;;;;;12.17;62.92;94210.31;5020607;28;20142;-86
2023/04/08 01:03:16;;;;;;;42.90;21.90;;;;;;;11.74;66.06;94203.13;5056058;28;20355;-86
2023/04/08 01:06:12;;;;;;;39.83;21.90;;;;;;;12.19;64.11;94208.19;5050445;28;20049;-85
2023/04/08 01:08:58;;;;;;;47.40;24.45;;;;;;;12.23;63.01;94200.53;5036689;28;20091;-85
2023/04/08 01:11:24;;;;;;;48.78;24.30;;;;;;;12.22;62.65;94207.63;5036266;28;20435;-85
2023/04/08 01:13:53;;;;;;;47.33;23.77;;;;;;;12.24;62.43;94217.84;5041890;28;20033;-85
2023/04/08 01:16:37;;;;;;;49.00;23.60;;;;;;;12.42;64.04;94218.94;5038590;28;20431;-85
2023/04/08 01:19:04;;;;;;;50.15;24.17;;;;;;;11.99;66.32;94217.81;5022225;28;20033;-86
2023/04/08 01:24:35;;;;;;;42.75;23.38;;;;;;;12.03;63.30;94207.59;5039684;28;20040;-85
2023/04/08 01:27:23;;;;;;;50.92;24.55;;;;;;;12.04;63.65;94211.78;5022056;28;20037;-86
2023/04/08 01:29:48;;;;;;;43.13;23.17;;;;;;;11.79;63.96;94203.06;5059050;28;20036;-86
2023/04/08 01:32:15;;;;;;;45.83;23.80;;;;;;;11.88;64.02;94205.88;5038213;28;20037;-86
2023/04/08 01:34:41;;;;;;;44.97;24.05;;;;;;;11.86;64.33;94208.00;5023774;28;20041;-86
2023/04/08 01:37:07;;;;;;;45.60;22.85;;;;;;;12.04;64.28;94206.53;5021840;28;20124;-85
2023/04/08 01:42:35;;;;;;;45.80;23.08;;;;;;;11.63;66.16;94214.78;5039700;28;20036;-86
2023/04/08 01:45:20;;;;;;;44.67;23.98;;;;;;;11.82;67.01;94209.63;5038082;28;20435;-85
2023/04/08 01:47:48;;;;;;;49.53;24.23;;;;;;;11.76;66.27;94216.75;5040618;28;20029;-85
2023/04/08 01:50:15;;;;;;;46.63;23.83;;;;;;;11.53;67.93;94210.41;5037821;28;20471;-86
2023/04/08 01:52:59;;;;;;;50.67;25.70;;;;;;;11.60;67.98;94216.91;5039957;28;20025;-86
2023/04/08 01:55:26;;;;;;;55.35;24.88;;;;;;;10.92;72.58;94217.72;5037865;28;20359;-86
2023/04/08 01:57:52;;;;;;;50.63;25.88;;;;;;;11.66;68.74;94216.84;5024780;28;20032;-85
2023/04/08 02:00:20;;;;;;;49.60;25.70;;;;;;;11.59;68.22;94212.72;5040942;28;20029;-85
2023/04/08 02:02:46;;;;;;;49.33;26.20;;;;;;;11.58;69.50;94213.00;5041041;28;20389;-85
2023/04/08 02:05:12;;;;;;;50.40;24.73;;;;;;;11.78;68.08;94221.75;5021352;28;20025;-86
2023/04/08 02:07:38;;;;;;;47.95;24.73;;;;;;;11.46;69.14;94216.75;5039381;28;20025;-85
2023/04/08 02:10:04;;;;;;;57.80;26.70;;;;;;;11.38;70.39;94222.63;5037395;28;20087;-85
2023/04/08 02:12:48;;;;;;;48.50;25.40;;;;;;;11.66;69.23;94214.22;5037966;28;20427;-85
2023/04/08 02:15:33;;;;;;;52.10;26.30;;;;;;;11.56;69.02;94218.53;5058900;28;20506;-85
2023/04/08 02:18:15;;;;;;;48.55;25.05;;;;;;;11.86;67.11;94224.53;5058512;28;20029;-85
2023/04/08 02:20:43;;;;;;;53.65;25.58;;;;;;;11.40;71.21;94227.56;5039438;28;20035;-86
2023/04/08 02:26:22;;;;;;;50.13;25.15;;;;;;;11.57;69.74;94227.16;5042618;28;20082;-85
2023/04/08 02:29:06;;;;;;;50.55;26.90;;;;;;;11.58;69.14;94231.34;5058384;28;20350;-86
2023/04/08 02:31:50;;;;;;;45.72;24.17;;;;;;;11.68;69.75;94231.28;5037819;28;20351;-85
2023/04/08 02:34:16;;;;;;;54.13;26.77;;;;;;;11.51;71.12;94234.31;5037049;28;20094;-85
2023/04/08 02:36:44;;;;;;;51.45;26.15;;;;;;;11.32;71.39;94236.81;5022817;28;20106;-85
2023/04/08 02:39:10;;;;;;;50.30;26.40;;;;;;;11.62;70.74;94234.22;5033177;28;20037;-85
2023/04/08 02:44:57;;;;;;;55.80;28.05;;;;;;;10.89;74.44;94226.91;5038126;28;20032;-85
2023/04/08 02:47:41;;;;;;;52.83;27.05;;;;;;;11.39;73.12;94224.19;5020408;28;20090;-85
2023/04/08 02:50:07;;;;;;;50.92;26.40;;;;;;;11.40;73.20;94220.50;5020176;28;20036;-85
2023/04/08 02:52:32;;;;;;;50.20;26.23;;;;;;;11.65;71.10;94231.81;5020126;28;20033;-85
2023/04/08 02:54:58;;;;;;;47.97;26.20;;;;;;;11.14;74.46;94223.31;5003946;28;20026;-85
2023/04/08 03:00:26;;;;;;;55.05;27.20;;;;;;;10.61;81.67;94223.91;5037726;28;20373;-85
2023/04/08 03:02:51;;;;;;;56.45;27.40;;;;;;;10.55;82.84;94228.41;5020367;28;20021;-85
2023/04/08 03:05:54;;;;;;;59.85;29.15;;;;;;;10.66;85.02;94226.50;5020068;28;20346;-85
2023/04/08 03:08:20;;;;;;;56.25;27.90;;;;;;;10.13;89.18;94225.16;5041113;28;20037;-85
2023/04/08 03:10:45;;;;;;;59.33;29.05;;;;;;;10.29;87.93;94225.09;5012506;28;20043;-85
2023/04/08 03:13:11;;;;;;;55.75;28.23;;;;;;;10.40;86.31;94224.00;5021290;28;20034;-85
2023/04/08 03:15:36;;;;;;;61.70;28.90;;;;;;;10.27;86.13;94225.34;5037431;28;20121;-85
2023/04/08 03:18:21;;;;;;;56.75;28.48;;;;;;;10.68;85.09;94234.88;5021766;28;20402;-85
2023/04/08 03:20:46;;;;;;;55.35;27.60;;;;;;;10.64;83.96;94227.84;5032025;28;20553;-85
2023/04/08 03:23:11;;;;;;;60.20;27.38;;;;;;;11.23;78.37;94234.00;5008417;28;20025;-85
2023/04/08 03:25:37;;;;;;;56.47;27.73;;;;;;;11.09;79.30;94240.91;5027695;28;20033;-86
2023/04/08 03:28:02;;;;;;;57.42;26.92;;;;;;;11.26;76.74;94233.47;5055167;28;20029;-86
2023/04/08 03:30:28;;;;;;;51.08;26.35;;;;;;;11.52;74.79;94229.84;5025590;28;20034;-86
2023/04/08 03:32:53;;;;;;;54.63;27.38;;;;;;;11.46;74.26;94232.50;5037150;28;20353;-85
2023/04/08 03:35:19;;;;;;;57.60;26.73;;;;;;;11.42;73.70;94231.50;5003237;28;20080;-85
2023/04/08 03:37:45;;;;;;;49.75;25.90;;;;;;;11.44;74.58;94237.25;5037085;28;20029;-85
2023/04/08 03:43:14;;;;;;;47.53;25.02;;;;;;;11.64;73.18;94242.59;5032060;28;20087;-86
2023/04/08 03:48:23;;;;;;;49.65;26.80;;;;;;;11.59;72.27;94241.59;5016165;28;20061;-86
2023/04/08 03:50:48;;;;;;;55.83;27.77;;;;;;;11.72;71.37;94249.88;5037082;28;20115;-85
2023/04/08 03:53:14;;;;;;;55.28;26.10;;;;;;;11.91;70.40;94252.59;5036828;28;20033;-85
2023/04/08 03:55:39;;;;;;;52.67;26.88;;;;;;;11.63;71.02;94249.69;5034376;28;20036;-85
2023/04/08 03:58:05;;;;;;;49.10;27.23;;;;;;;11.62;71.34;94258.63;5032275;28;20030;-86
2023/04/08 04:00:30;;;;;;;55.15;26.85;;;;;;;11.79;71.56;94260.81;5032804;28;20032;-85
2023/04/08 04:02:56;;;;;;;48.33;25.75;;;;;;;11.70;71.07;94262.50;5037034;28;20033;-85
2023/04/08 04:05:21;;;;;;;49.35;25.67;;;;;;;11.87;70.26;94264.69;5032723;28;20030;-85
2023/04/08 04:08:06;;;;;;;54.08;26.25;;;;;;;12.15;69.31;94263.13;5035047;28;20447;-86
2023/04/08 04:10:31;;;;;;;56.50;28.13;;;;;;;11.76;70.57;94268.47;5035350;28;20018;-85
2023/04/08 04:13:16;;;;;;;48.03;25.60;;;;;;;12.11;69.55;94263.97;5032085;28;20494;-85
2023/04/08 04:15:41;;;;;;;47.60;25.98;;;;;;;11.70;70.53;94268.50;5034186;28;20029;-86
2023/04/08 04:18:25;;;;;;;51.65;26.40;;;;;;;11.65;70.13;94265.16;5032109;28;20034;-85
2023/04/08 04:20:50;;;;;;;58.00;27.88;;;;;;;11.55;70.60;94266.81;5036466;28;20084;-86
2023/04/08 04:23:16;;;;;;;52.65;26.98;;;;;;;11.46;70.38;94271.84;5032366;28;20030;-86
2023/04/08 04:25:42;;;;;;;59.15;28.10;;;;;;;11.41;71.25;94271.13;5017998;28;20350;-86
2023/04/08 04:28:08;;;;;;;59.35;26.70;;;;;;;11.49;71.17;94267.91;5015857;28;20084;-86
2023/04/08 04:30:37;;;;;;;59.15;29.63;;;;;;;11.39;71.97;94267.97;5034204;28;20036;-85
2023/04/08 04:33:03;;;;;;;56.85;28.35;;;;;;;11.26;72.48;94274.63;5032095;28;20041;-86
2023/04/08 04:35:28;;;;;;;55.75;29.17;;;;;;;11.07;73.39;94272.66;5016029;28;20359;-85
2023/04/08 04:37:53;;;;;;;53.00;27.92;;;;;;;11.17;73.29;94275.22;5032135;28;20041;-85
2023/04/08 04:40:19;;;;;;;54.38;28.02;;;;;;;10.92;74.07;94262.28;5032037;28;20037;-85
2023/04/08 04:45:29;;;;;;;53.83;27.67;;;;;;;10.70;78.10;94268.69;5030205;28;20040;-85
2023/04/08 04:47:54;;;;;;;55.20;28.02;;;;;;;10.67;79.30;94264.75;5040098;28;20358;-85
2023/04/08 04:50:20;;;;;;;53.03;27.88;;;;;;;10.96;75.88;94263.31;5035897;28;20032;-86
2023/04/08 04:52:45;;;;;;;62.65;29.45;;;;;;;10.76;77.64;94265.00;5038306;28;20033;-85
2023/04/08 04:55:14;;;;;;;58.83;30.00;;;;;;;10.70;77.87;94263.44;5036009;28;20375;-85
2023/04/08 04:57:39;;;;;;;62.70;28.55;;;;;;;10.68;77.29;94263.69;5038662;28;20048;-85
2023/04/08 05:03:08;;;;;;;63.67;28.98;;;;;;;10.81;77.25;94267.56;5039017;28;20056;-85
2023/04/08 05:05:33;;;;;;;54.80;28.40;;;;;;;10.95;76.89;94266.97;5020275;28;20038;-85
2023/04/08 05:07:59;;;;;;;58.17;28.95;;;;;;;11.10;76.31;94269.50;5035416;28;20056;-85
2023/04/08 05:10:24;;;;;;;57.35;28.65;;;;;;;11.15;75.66;94279.19;5036249;28;20029;-85
2023/04/08 05:12:50;;;;;;;57.92;29.27;;;;;;;10.98;75.51;94271.66;5035230;28;20040;-85
2023/04/08 05:15:15;;;;;;;59.88;28.73;;;;;;;10.42;78.89;94276.94;5033665;28;20048;-85
2023/04/08 05:23:09;;;;;;;54.53;27.83;;;;;;;11.15;76.90;94279.19;5033035;28;20064;-85
2023/04/08 05:25:35;;;;;;;60.50;30.10;;;;;;;10.05;84.72;94275.44;5038399;28;20053;-86
2023/04/08 05:28:00;;;;;;;62.50;29.13;;;;;;;10.69;81.36;94274.97;5035148;28;20025;-85
2023/04/08 05:30:49;;;;;;;74.03;30.88;;;;;;;10.68;84.43;94281.25;5034852;28;20126;-86
2023/04/08 05:33:15;;;;;;;60.67;29.40;;;;;;;10.67;84.86;94279.69;5038212;28;20033;-85
2023/04/08 05:35:40;;;;;;;57.35;29.48;;;;;;;11.05;80.35;94285.28;5036836;28;20025;-85
2023/04/08 05:38:06;;;;;;;61.17;28.67;;;;;;;11.07;77.74;94287.59;5029418;28;20041;-85
2023/04/08 05:40:32;;;;;;;58.33;28.98;;;;;;;10.32;85.10;94293.41;5002840;28;20191;-86
2023/04/08 05:43:00;;;;;;;58.95;29.95;;;;;;;10.73;84.00;94295.13;5018462;28;20389;-86
2023/04/08 05:45:45;;;;;;;57.40;28.10;;;;;;;11.01;82.80;94295.50;5019702;28;20336;-86
2023/04/08 05:48:10;;;;;;;57.22;29.55;;;;;;;11.34;77.19;94297.69;5053451;28;20033;-85
2023/04/08 05:53:20;;;;;;;55.83;28.65;;;;;;;10.98;80.50;94296.06;5038029;28;20040;-85
2023/04/08 05:55:45;;;;;;;57.72;29.75;;;;;;;10.82;80.21;94297.16;5024061;28;20439;-85
2023/04/08 05:58:11;;;;;;;58.80;29.70;;;;;;;10.18;85.49;94305.50;5057616;28;20111;-88
2023/04/08 06:00:36;;;;;;;60.88;30.65;;;;;;;11.14;80.90;94314.31;5039456;28;20032;-87
2023/04/08 06:03:01;;;;;;;55.97;29.30;;;;;;;11.77;75.20;94314.66;5037906;28;20370;-88
2023/04/08 06:05:27;;;;;;;62.45;29.77;;;;;;;11.58;77.73;94316.13;5038035;28;20117;-85
2023/04/08 06:07:58;;;;;;;54.95;29.85;;;;;;;12.83;69.60;94314.91;5037637;28;20075;-85
2023/04/08 06:10:24;;;;;;;55.67;28.75;;;;;;;12.36;70.69;94317.28;5055070;28;20033;-86
2023/04/08 06:18:46;;;;;;;51.13;26.85;;;;;;;12.70;70.51;94324.25;5058685;28;20043;-86
2023/04/08 06:21:11;;;;;;;54.92;27.05;;;;;;;11.58;72.43;94320.56;5037630;28;20370;-85
2023/04/08 06:23:37;;;;;;;55.30;29.13;;;;;;;11.28;77.74;94319.72;5037874;28;20028;-86
2023/04/08 06:28:46;;;;;;;58.55;28.15;;;;;;;12.01;72.26;94315.50;5021150;28;20087;-85
2023/04/08 06:31:11;;;;;;;58.33;27.40;;;;;;;12.36;69.93;94322.53;5038496;28;20455;-85
2023/04/08 06:33:37;;;;;;;58.67;28.63;;;;;;;12.33;71.09;94320.44;5019132;28;20118;-85
2023/04/08 06:36:21;;;;;;;52.58;27.42;;;;;;;11.53;72.58;94316.13;5017240;28;20030;-90
2023/04/08 06:42:08;;;;;;;56.80;28.63;;;;;;;11.36;75.36;94319.16;5038109;28;20397;-86
2023/04/08 06:44:34;;;;;;;54.65;28.10;;;;;;;10.97;77.83;94319.91;5018317;28;20104;-86
2023/04/08 06:46:59;;;;;;;47.67;26.05;;;;;;;10.60;80.62;94316.66;5001013;28;20036;-87
2023/04/08 06:49:25;;;;;;;53.85;26.80;;;;;;;11.03;78.98;94321.44;5035351;28;20048;-86
2023/04/08 06:52:10;;;;;;;52.60;27.92;;;;;;;12.42;69.86;94326.69;5020343;28;20033;-86
2023/04/08 06:57:38;;;;;;;50.72;27.50;;;;;;;11.90;71.49;94323.72;5018983;28;20036;-87
2023/04/08 07:00:23;;;;;;;45.78;25.77;;;;;;;12.66;69.27;94331.91;5037998;28;20029;-86
2023/04/08 07:03:07;;;;;;;45.90;25.15;;;;;;;13.29;64.68;94329.28;5020285;28;20025;-87
2023/04/08 07:05:36;;;;;;;54.08;24.15;;;;;;;13.21;63.97;94337.84;5001926;28;20414;-86
2023/04/08 07:08:20;;;;;;;49.05;26.10;;;;;;;13.36;65.08;94331.56;5037588;28;20434;-86
2023/04/08 07:10:45;;;;;;;46.22;23.52;;;;;;;13.29;63.44;94334.56;5003116;28;20120;-86
2023/04/08 07:13:11;;;;;;;41.92;23.40;;;;;;;13.51;62.59;94333.22;5016559;28;20140;-86
2023/04/08 07:15:36;;;;;;;39.05;19.83;;;;;;;12.95;60.47;94331.03;5018138;28;20037;-86
2023/04/08 07:18:03;;;;;;;44.25;22.90;;;;;;;13.70;60.18;94338.44;5016551;28;20060;-86
2023/04/08 07:20:52;;;;;;;45.10;22.10;;;;;;;13.64;63.15;94337.78;5016888;28;20030;-86
2023/04/08 07:23:36;;;;;;;38.63;21.02;;;;;;;13.87;60.00;94337.94;5035874;28;20034;-86
2023/04/08 07:26:03;;;;;;;41.38;21.38;;;;;;;13.89;57.56;94341.06;5035956;28;20036;-87
2023/04/08 07:28:29;;;;;;;41.80;23.30;;;;;;;13.91;59.92;94338.91;5037010;28;20119;-87
2023/04/08 07:31:14;;;;;;;45.00;23.73;;;;;;;15.02;59.67;94332.16;5048673;28;20060;-87
2023/04/08 07:33:40;;;;;;;39.55;22.17;;;;;;;15.18;57.49;94343.19;5040165;28;20434;-87
2023/04/08 07:41:56;;;;;;;31.33;18.00;;;;;;;16.11;51.88;94351.66;5056315;28;20091;-87
2023/04/08 07:44:21;;;;;;;36.17;18.08;;;;;;;16.20;53.81;94349.06;5019723;28;20328;-86
2023/04/08 07:47:06;;;;;;;34.03;16.45;;;;;;;16.15;50.32;94354.47;5004863;28;20029;-87
2023/04/08 07:49:31;;;;;;;27.13;14.00;;;;;;;15.41;52.18;94349.28;5000880;28;20348;-87
2023/04/08 07:51:56;;;;;;;26.80;13.98;;;;;;;15.65;51.69;94352.72;5000261;28;20033;-86
2023/04/08 07:54:41;;;;;;;22.60;13.60;;;;;;;16.41;50.98;94351.19;5015871;28;20038;-86
2023/04/08 07:57:06;;;;;;;21.02;12.07;;;;;;;16.43;50.68;94361.47;5015779;28;20042;-85
2023/04/08 07:59:53;;;;;;;20.48;12.43;;;;;;;16.14;51.27;94358.22;5016884;28;20116;-87
2023/04/08 08:02:18;;;;;;;26.48;13.23;;;;;;;15.65;52.28;94353.53;5037026;28;20028;-85
2023/04/08 08:05:02;;;;;;;22.15;13.32;;;;;;;15.61;52.02;94362.34;5018286;28;20030;-86
2023/04/08 08:07:28;;;;;;;30.45;13.07;;;;;;;15.38;52.39;94359.66;5016343;28;20431;-86
2023/04/08 08:09:53;;;;;;;26.15;13.43;;;;;;;14.98;52.76;94357.59;5036923;28;20113;-86
2023/04/08 08:12:19;;;;;;;25.35;13.35;;;;;;;14.82;54.43;94370.28;5019940;28;20021;-86
2023/04/08 08:14:44;;;;;;;30.88;12.35;;;;;;;15.09;50.86;94363.44;5038345;28;20044;-86
2023/04/08 08:19:53;;;;;;;22.50;12.43;;;;;;;15.18;51.62;94364.31;5039224;28;20086;-85
2023/04/08 08:22:41;;;;;;;26.13;12.73;;;;;;;14.79;54.37;94366.41;5056099;28;20029;-85
2023/04/08 08:25:08;;;;;;;23.33;13.15;;;;;;;14.96;54.41;94365.03;5056511;28;20082;-86
2023/04/08 08:30:37;;;;;;;25.20;13.73;;;;;;;15.67;52.14;94369.06;5035283;28;20071;-84
2023/04/08 08:33:21;;;;;;;26.08;14.48;;;;;;;15.54;54.68;94374.09;5034014;28;20040;-85
2023/04/08 08:35:47;;;;;;;29.70;15.52;;;;;;;15.31;55.05;94375.91;5055882;28;20124;-85
2023/04/08 08:38:12;;;;;;;28.90;14.38;;;;;;;15.52;55.00;94370.19;5056346;28;20021;-84
2023/04/08 08:40:38;;;;;;;24.92;13.50;;;;;;;14.87;50.62;94377.31;5034911;28;20025;-86
2023/04/08 08:43:04;;;;;;;33.22;14.85;;;;;;;15.58;51.25;94369.00;5031900;28;20638;-85
2023/04/08 08:48:13;;;;;;;26.42;14.32;;;;;;;15.16;50.87;94370.94;5016335;28;20095;-85
2023/04/08 08:50:39;;;;;;;27.60;13.80;;;;;;;15.32;48.90;94380.09;5018585;28;20033;-85
2023/04/08 08:53:30;;;;;;;23.27;12.38;;;;;;;15.73;46.62;94386.38;5036476;28;20084;-85
2023/04/08 08:55:55;;;;;;;19.83;11.02;;;;;;;16.16;46.67;94385.13;5015260;28;20030;-84
2023/04/08 08:58:21;;;;;;;24.02;13.55;;;;;;;16.05;48.33;94383.81;5015356;28;20085;-85
2023/04/08 09:00:46;;;;;;;27.48;15.70;;;;;;;15.83;49.59;94386.09;5017910;28;20033;-84
